Time;durP1;ratioP1;P1;durP2;ratioP2;P2;SDS_P1;SDS_P2;PMS_P1;PMS_P2;Temp;Humidity;BMP_temperature;BMP_pressure;BME280_temperature;BME280_humidity;BME280_pressure;Samples;Min_cycle;Max_cycle;Signal;HPM_P1;HPM_P2
2021/12/07 00:01:27;;;;;;;22.20;21.10;;;-0.90;99.90;;;;;;4197370;28;20040;-51
2021/12/07 00:03:29;;;;;;;22.15;20.95;;;-0.90;99.90;;;;;;4195965;28;20492;-52
2021/12/07 00:05:32;;;;;;;19.80;19.02;;;-0.90;99.90;;;;;;4198924;28;20039;-51
2021/12/07 00:07:34;;;;;;;20.33;19.33;;;-1.00;99.90;;;;;;4197734;28;20044;-52
2021/12/07 00:09:37;;;;;;;19.45;18.30;;;-1.00;99.90;;;;;;4196787;28;20043;-50
2021/12/07 00:11:39;;;;;;;20.38;19.67;;;-1.00;99.90;;;;;;4180262;28;20041;-51
2021/12/07 00:13:43;;;;;;;14.38;14.07;;;-1.10;99.90;;;;;;4195144;28;20449;-51
2021/12/07 00:15:46;;;;;;;20.70;19.63;;;-1.10;99.90;;;;;;4196394;28;20032;-52
2021/12/07 00:17:49;;;;;;;23.95;22.65;;;-1.20;99.90;;;;;;4194255;28;20044;-51
2021/12/07 00:19:51;;;;;;;27.92;25.65;;;-1.30;99.90;;;;;;4193305;28;20051;-52
2021/12/07 00:21:53;;;;;;;28.25;25.90;;;-1.40;99.90;;;;;;4197628;28;20453;-52
2021/12/07 00:23:55;;;;;;;39.20;34.75;;;-1.30;99.90;;;;;;4195624;28;20544;-52
2021/12/07 00:26:12;;;;;;;29.70;27.08;;;-1.60;99.90;;;;;;4198356;28;20037;-52
2021/12/07 00:28:14;;;;;;;23.80;22.50;;;-1.90;99.90;;;;;;4197544;28;20043;-52
2021/12/07 00:30:16;;;;;;;23.02;21.92;;;-1.80;99.90;;;;;;4197299;28;20455;-52
2021/12/07 00:32:30;;;;;;;19.77;19.08;;;-1.60;99.90;;;;;;4197613;28;20490;-52
2021/12/07 00:36:44;;;;;;;26.80;24.63;;;-1.50;99.90;;;;;;4197737;28;20037;-52
2021/12/07 00:38:47;;;;;;;26.55;24.95;;;-1.60;99.90;;;;;;4175960;28;20052;-52
2021/12/07 00:40:50;;;;;;;24.00;22.58;;;-1.60;99.90;;;;;;4193079;28;20036;-52
2021/12/07 00:42:52;;;;;;;28.88;26.85;;;-1.50;99.90;;;;;;4174639;28;20069;-52
2021/12/07 00:44:54;;;;;;;29.10;27.65;;;-1.50;99.90;;;;;;4194011;28;20040;-52
2021/12/07 00:46:57;;;;;;;29.13;27.45;;;-1.50;99.90;;;;;;4195765;28;20090;-50
2021/12/07 00:48:59;;;;;;;28.60;26.55;;;-1.50;99.90;;;;;;4194953;28;20042;-51
2021/12/07 00:51:01;;;;;;;27.55;25.90;;;-1.50;99.90;;;;;;4195277;28;20045;-52
2021/12/07 00:53:05;;;;;;;34.75;31.58;;;-1.50;99.90;;;;;;4194869;28;20071;-52
2021/12/07 00:55:12;;;;;;;33.00;31.15;;;-1.60;99.90;;;;;;4195135;28;20090;-52
2021/12/07 00:57:14;;;;;;;32.22;30.55;;;-1.60;99.90;;;;;;4194719;28;20068;-52
2021/12/07 00:59:16;;;;;;;27.08;26.38;;;-1.80;99.90;;;;;;4195023;28;20389;-52
2021/12/07 01:01:19;;;;;;;29.33;28.48;;;-1.70;99.90;;;;;;4194012;28;20040;-51
2021/12/07 01:03:23;;;;;;;33.78;32.13;;;-1.70;99.90;;;;;;4193082;28;20036;-50
2021/12/07 01:05:30;;;;;;;27.42;26.33;;;-1.70;99.90;;;;;;4192216;28;20045;-50
2021/12/07 01:07:56;;;;;;;32.95;31.35;;;-1.80;99.90;;;;;;4193468;28;20040;-51
2021/12/07 01:26:31;;;;;;;35.00;33.35;;;-2.30;99.90;;;;;;4181896;28;20090;-52
2021/12/07 01:28:39;;;;;;;35.42;33.65;;;-2.30;99.90;;;;;;4195134;28;20090;-52
2021/12/07 01:30:53;;;;;;;36.58;34.85;;;-2.40;99.90;;;;;;4176254;28;20040;-51
2021/12/07 01:33:12;;;;;;;35.92;34.13;;;-2.40;99.90;;;;;;4191912;28;20032;-52
2021/12/07 01:38:05;;;;;;;38.63;36.45;;;-2.50;99.90;;;;;;4192729;28;20135;-52
2021/12/07 01:42:56;;;;;;;34.33;33.03;;;-2.50;99.90;;;;;;4186510;28;20512;-52
2021/12/07 02:01:07;;;;;;;34.58;32.97;;;-2.30;99.90;;;;;;4191723;28;20036;-52
2021/12/07 02:03:10;;;;;;;32.40;31.20;;;-2.30;99.90;;;;;;4193185;28;20044;-50
2021/12/07 02:05:12;;;;;;;33.50;32.13;;;-2.40;99.90;;;;;;4191507;28;20922;-51
2021/12/07 02:07:15;;;;;;;31.38;30.13;;;-2.20;99.90;;;;;;4194622;28;20483;-51
2021/12/07 02:09:17;;;;;;;;;;;-2.30;99.90;;;;;;4194439;28;20303;-50
2021/12/07 02:11:19;;;;;;;39.08;37.22;;;-2.30;99.90;;;;;;4193922;28;19924;-52
2021/12/07 02:15:34;;;;;;;37.05;35.28;;;-2.30;99.90;;;;;;4193521;28;20072;-52
2021/12/07 02:17:37;;;;;;;38.03;36.20;;;-2.50;99.90;;;;;;4192160;28;20033;-51
2021/12/07 02:19:40;;;;;;;41.70;38.88;;;-2.50;99.90;;;;;;4173977;28;20037;-52
2021/12/07 02:21:42;;;;;;;;;;;-2.50;99.90;;;;;;4193470;28;20041;-49
2021/12/07 02:23:45;;;;;;;43.42;40.42;;;-2.50;99.90;;;;;;4191691;28;19920;-51
2021/12/07 02:25:47;;;;;;;;;;;-2.40;99.90;;;;;;4194337;28;20036;-52
2021/12/07 02:27:49;;;;;;;39.17;37.03;;;-2.40;99.90;;;;;;4175989;28;19974;-50
2021/12/07 02:29:52;;;;;;;42.75;39.70;;;-2.50;99.90;;;;;;4191866;28;20059;-51
2021/12/07 02:31:55;;;;;;;54.88;48.28;;;-2.50;99.90;;;;;;4189622;28;20032;-51
2021/12/07 02:33:58;;;;;;;50.70;45.85;;;-2.50;99.90;;;;;;4168245;28;20041;-51
2021/12/07 02:36:00;;;;;;;42.78;38.97;;;-2.60;99.90;;;;;;4190378;28;20036;-51
2021/12/07 02:38:03;;;;;;;;;;;-2.50;99.90;;;;;;4186003;28;20032;-52
2021/12/07 02:40:06;;;;;;;42.50;40.15;;;-2.50;99.90;;;;;;4191972;28;20449;-51
2021/12/07 02:42:09;;;;;;;38.50;36.63;;;-2.60;99.90;;;;;;4191523;28;20032;-51
2021/12/07 02:44:11;;;;;;;37.58;35.78;;;-2.70;99.90;;;;;;4192145;28;20041;-51
2021/12/07 02:46:13;;;;;;;39.20;36.92;;;-2.70;99.90;;;;;;4191699;28;20476;-52
2021/12/07 02:48:15;;;;;;;40.20;38.13;;;-2.70;99.90;;;;;;4192695;28;20044;-50
2021/12/07 02:50:20;;;;;;;42.03;39.92;;;-2.80;99.90;;;;;;4191743;28;20444;-51
2021/12/07 02:52:22;;;;;;;39.78;37.63;;;-2.90;99.90;;;;;;4191760;28;20043;-50
2021/12/07 02:54:24;;;;;;;41.20;38.28;;;-3.10;99.90;;;;;;4191357;28;20036;-52
2021/12/07 02:56:26;;;;;;;39.33;37.58;;;-3.20;99.90;;;;;;4191897;28;20052;-52
2021/12/07 02:58:29;;;;;;;38.85;37.05;;;-3.20;99.90;;;;;;4191358;28;20044;-51
2021/12/07 03:00:41;;;;;;;37.28;35.42;;;-3.30;99.90;;;;;;4192664;28;20039;-52
2021/12/07 03:02:51;;;;;;;38.22;36.47;;;-3.30;99.90;;;;;;4185665;28;20040;-50
2021/12/07 03:05:02;;;;;;;40.33;38.40;;;-3.30;99.90;;;;;;4173214;28;20055;-51
2021/12/07 03:07:16;;;;;;;37.53;36.05;;;-3.30;99.90;;;;;;4192301;28;20442;-50
2021/12/07 03:27:56;;;;;;;35.65;34.42;;;-2.90;99.90;;;;;;4192455;28;20037;-52
2021/12/07 03:29:58;;;;;;;36.75;35.50;;;-2.90;99.90;;;;;;4188789;28;20083;-50
2021/12/07 03:32:00;;;;;;;35.88;34.65;;;-2.90;99.90;;;;;;4187667;28;20032;-52
2021/12/07 03:34:03;;;;;;;36.95;35.55;;;-3.00;99.90;;;;;;4188415;28;20591;-51
2021/12/07 03:36:06;;;;;;;31.55;30.42;;;-3.00;99.90;;;;;;4190968;28;20036;-50
2021/12/07 03:38:09;;;;;;;34.20;32.90;;;-2.90;99.90;;;;;;4188029;28;20037;-49
2021/12/07 03:40:15;;;;;;;35.78;34.65;;;-2.80;99.90;;;;;;4179285;28;20033;-51
2021/12/07 03:42:17;;;;;;;39.70;37.95;;;-2.90;99.90;;;;;;4191008;28;20079;-51
2021/12/07 03:44:19;;;;;;;38.00;36.38;;;-3.00;99.90;;;;;;4192320;28;21163;-50
2021/12/07 03:46:21;;;;;;;38.03;36.42;;;-3.00;99.90;;;;;;4191976;28;20090;-51
2021/12/07 03:48:24;;;;;;;37.45;35.95;;;-3.00;99.90;;;;;;4190482;28;20500;-52
2021/12/07 03:50:27;;;;;;;38.65;36.72;;;-3.00;99.90;;;;;;4191309;28;20473;-52
2021/12/07 03:52:29;;;;;;;40.83;38.50;;;-3.10;99.90;;;;;;4192198;28;20413;-49
2021/12/07 03:54:31;;;;;;;41.05;38.75;;;-3.20;99.90;;;;;;4191064;28;20530;-51
2021/12/07 03:56:34;;;;;;;40.13;37.85;;;-3.30;99.90;;;;;;4190205;28;20045;-50
2021/12/07 03:58:37;;;;;;;40.13;38.33;;;-3.30;99.90;;;;;;4193216;28;20037;-50
2021/12/07 04:00:41;;;;;;;39.40;37.80;;;-3.40;99.90;;;;;;4192493;28;20033;-52
2021/12/07 04:02:45;;;;;;;38.65;37.03;;;-3.40;99.90;;;;;;4191949;28;20044;-51
2021/12/07 04:04:52;;;;;;;40.00;37.95;;;-3.40;99.90;;;;;;4192625;28;20044;-51
2021/12/07 04:06:55;;;;;;;41.47;39.40;;;-3.40;99.90;;;;;;4190892;28;20086;-49
2021/12/07 04:08:57;;;;;;;42.22;40.08;;;-3.50;99.90;;;;;;4191408;28;20048;-51
2021/12/07 04:10:59;;;;;;;39.83;37.95;;;-3.50;99.90;;;;;;4191793;28;20037;-49
2021/12/07 04:13:02;;;;;;;42.45;40.28;;;-3.60;99.90;;;;;;4192287;28;20028;-49
2021/12/07 04:15:06;;;;;;;43.10;40.92;;;-3.50;99.90;;;;;;4193941;28;20044;-51
2021/12/07 04:17:08;;;;;;;41.15;38.90;;;-3.50;99.90;;;;;;4195210;28;20565;-51
2021/12/07 04:19:10;;;;;;;40.63;38.55;;;-3.60;99.90;;;;;;4194244;28;20059;-51
2021/12/07 04:21:12;;;;;;;39.60;37.78;;;-3.50;99.90;;;;;;4195728;28;20040;-52
2021/12/07 04:23:14;;;;;;;39.17;37.33;;;-3.40;99.90;;;;;;4195461;28;20041;-51
2021/12/07 04:25:18;;;;;;;39.08;37.67;;;-3.20;99.90;;;;;;4195773;28;20067;-51
2021/12/07 04:27:20;;;;;;;36.63;35.33;;;-3.20;99.90;;;;;;4195452;28;20037;-52
2021/12/07 04:29:22;;;;;;;36.67;35.10;;;-3.10;99.90;;;;;;4188715;28;20041;-50
2021/12/07 04:31:24;;;;;;;39.22;37.60;;;-3.10;99.90;;;;;;4193707;28;20048;-51
2021/12/07 04:33:29;;;;;;;37.00;35.65;;;-3.30;99.90;;;;;;4194170;28;20045;-51
2021/12/07 04:35:33;;;;;;;37.33;35.58;;;-3.40;99.90;;;;;;4194091;28;20047;-51
2021/12/07 04:37:35;;;;;;;41.10;39.05;;;-3.40;99.90;;;;;;4195520;28;20033;-51
2021/12/07 04:39:38;;;;;;;39.33;37.55;;;-3.30;99.90;;;;;;4193404;28;20041;-51
2021/12/07 04:41:43;;;;;;;38.67;36.88;;;-3.30;99.90;;;;;;4179330;28;20098;-51
2021/12/07 04:43:48;;;;;;;35.53;34.20;;;-3.30;99.90;;;;;;4195822;28;20038;-52
2021/12/07 04:46:05;;;;;;;37.25;35.42;;;-3.10;99.90;;;;;;4194812;28;20072;-52
2021/12/07 04:57:44;;;;;;;36.05;34.53;;;-2.90;99.90;;;;;;4193932;28;20072;-50
2021/12/07 04:59:46;;;;;;;36.28;34.88;;;-3.00;99.90;;;;;;4191973;28;20040;-52
2021/12/07 05:01:48;;;;;;;40.40;38.58;;;-3.00;99.90;;;;;;4195043;28;20455;-52
2021/12/07 05:03:54;;;;;;;36.28;34.72;;;-3.10;99.90;;;;;;4194116;28;20094;-51
2021/12/07 05:05:56;;;;;;;37.95;36.15;;;-3.10;99.90;;;;;;4176790;28;20053;-51
2021/12/07 05:08:02;;;;;;;39.65;37.67;;;-3.10;99.90;;;;;;4192818;28;20389;-51
2021/12/07 05:10:17;;;;;;;37.58;36.03;;;-3.20;99.90;;;;;;4194591;28;20041;-51
2021/12/07 05:12:29;;;;;;;36.28;34.90;;;-3.20;99.90;;;;;;4175169;28;20041;-51
2021/12/07 05:14:34;;;;;;;38.08;36.45;;;-3.30;99.90;;;;;;4193560;28;20033;-52
2021/12/07 05:40:04;;;;;;;41.47;39.47;;;-3.70;99.90;;;;;;4108849;28;20043;-52
2021/12/07 05:42:06;;;;;;;38.08;36.28;;;-3.50;99.90;;;;;;4111882;28;20039;-51
2021/12/07 05:44:08;;;;;;;38.63;36.88;;;-3.50;99.90;;;;;;4110348;28;20153;-52
2021/12/07 05:46:10;;;;;;;46.67;44.17;;;-3.60;99.90;;;;;;4109346;28;20065;-51
2021/12/07 05:48:13;;;;;;;41.03;39.00;;;-3.60;99.90;;;;;;4109157;28;20105;-52
2021/12/07 05:50:21;;;;;;;42.13;39.95;;;-3.60;99.90;;;;;;4109713;28;20059;-52
2021/12/07 05:52:24;;;;;;;42.30;40.50;;;-3.60;99.90;;;;;;4094467;29;20055;-51
2021/12/07 05:54:27;;;;;;;44.97;42.42;;;-3.50;99.90;;;;;;4110949;28;20038;-51
2021/12/07 05:56:29;;;;;;;41.78;39.95;;;-3.40;99.90;;;;;;4110871;28;20042;-52
2021/12/07 05:58:31;;;;;;;42.65;40.75;;;-3.40;99.90;;;;;;4111505;28;20182;-51
2021/12/07 06:00:34;;;;;;;42.35;40.40;;;-3.40;99.90;;;;;;4092606;28;20043;-52
2021/12/07 06:02:36;;;;;;;37.47;36.03;;;-3.50;99.90;;;;;;4109837;28;20071;-52
2021/12/07 06:04:39;;;;;;;39.25;37.53;;;-3.50;99.90;;;;;;4109981;28;20058;-52
2021/12/07 06:06:41;;;;;;;42.15;40.20;;;-3.40;99.90;;;;;;4110303;28;20047;-52
2021/12/07 06:08:43;;;;;;;38.08;36.67;;;-3.40;99.90;;;;;;4110102;28;20055;-50
2021/12/07 06:10:46;;;;;;;36.70;35.20;;;-3.40;99.90;;;;;;4136612;28;20114;-50
2021/12/07 06:12:48;;;;;;;38.65;37.17;;;-3.40;99.90;;;;;;4175593;28;20493;-51
2021/12/07 06:14:54;;;;;;;34.88;33.47;;;-3.30;99.90;;;;;;4193043;28;20045;-52
2021/12/07 06:16:56;;;;;;;38.17;36.80;;;-3.30;99.90;;;;;;4174679;28;20045;-52
2021/12/07 06:19:01;;;;;;;38.45;37.13;;;-3.50;99.90;;;;;;4191059;28;20037;-51
2021/12/07 06:21:04;;;;;;;38.38;37.03;;;-3.50;99.90;;;;;;4193531;28;20040;-51
2021/12/07 06:23:06;;;;;;;38.60;36.92;;;-3.40;99.90;;;;;;4172241;28;20037;-50
2021/12/07 06:25:10;;;;;;;37.08;35.78;;;-3.40;99.90;;;;;;4193840;28;20055;-50
2021/12/07 06:27:12;;;;;;;40.28;38.53;;;-3.50;99.90;;;;;;4191026;28;20032;-49
2021/12/07 06:29:15;;;;;;;39.60;37.97;;;-3.60;99.90;;;;;;4174747;28;20072;-50
2021/12/07 06:31:17;;;;;;;40.35;38.75;;;-3.60;99.90;;;;;;4190360;28;20045;-51
2021/12/07 06:33:23;;;;;;;39.30;37.60;;;-3.60;99.90;;;;;;4194265;28;20111;-48
2021/12/07 06:35:25;;;;;;;40.13;38.20;;;-3.50;99.90;;;;;;4191207;28;20103;-50
2021/12/07 06:37:27;;;;;;;39.45;37.38;;;-3.50;99.90;;;;;;4192649;28;20041;-51
2021/12/07 06:39:29;;;;;;;39.00;37.58;;;-3.50;99.90;;;;;;4193920;28;20032;-50
2021/12/07 06:41:32;;;;;;;38.45;36.88;;;-3.50;99.90;;;;;;4191916;28;20032;-51
2021/12/07 06:43:34;;;;;;;37.28;35.88;;;-3.50;99.90;;;;;;4191488;28;20048;-48
2021/12/07 06:45:37;;;;;;;39.45;37.92;;;-3.40;99.90;;;;;;4192698;28;20101;-49
2021/12/07 06:47:40;;;;;;;42.08;39.83;;;-3.40;99.90;;;;;;4193553;28;20098;-50
2021/12/07 06:49:42;;;;;;;46.03;42.60;;;-3.50;99.90;;;;;;4193084;28;20060;-49
2021/12/07 06:51:45;;;;;;;51.03;47.22;;;-3.50;99.90;;;;;;4191634;28;20036;-49
2021/12/07 06:53:47;;;;;;;51.88;48.28;;;-3.70;99.90;;;;;;4192866;28;20106;-48
2021/12/07 06:55:49;;;;;;;51.22;47.40;;;-3.80;99.90;;;;;;4193276;28;20631;-48
2021/12/07 06:57:52;;;;;;;49.30;46.00;;;-3.80;99.90;;;;;;4192357;28;20445;-50
2021/12/07 06:59:54;;;;;;;48.00;44.95;;;-3.90;99.90;;;;;;4192711;28;20056;-50
2021/12/07 07:01:56;;;;;;;47.38;44.28;;;-3.90;99.90;;;;;;4191623;28;20049;-48
2021/12/07 07:03:59;;;;;;;53.30;49.03;;;-3.90;99.90;;;;;;4191586;28;20041;-48
2021/12/07 07:06:02;;;;;;;53.55;49.38;;;-3.90;99.90;;;;;;4191803;28;20033;-50
2021/12/07 07:08:04;;;;;;;49.45;46.08;;;-3.90;99.90;;;;;;4193211;28;20139;-51
2021/12/07 07:10:09;;;;;;;49.38;46.05;;;-3.90;99.90;;;;;;4193194;28;20059;-51
2021/12/07 07:12:11;;;;;;;47.08;43.80;;;-3.90;99.90;;;;;;4192865;28;20040;-51
2021/12/07 07:14:15;;;;;;;48.22;44.65;;;-3.90;99.90;;;;;;4172854;28;20052;-50
2021/12/07 07:16:18;;;;;;;48.92;44.88;;;-3.90;99.90;;;;;;4192431;28;20048;-49
2021/12/07 07:18:20;;;;;;;46.55;43.42;;;-3.80;99.90;;;;;;4174639;28;20632;-50
2021/12/07 07:20:23;;;;;;;45.35;41.95;;;-3.90;99.90;;;;;;4193199;28;20037;-50
2021/12/07 07:22:25;;;;;;;48.50;45.00;;;-3.90;99.90;;;;;;4192151;28;20045;-49
2021/12/07 07:24:29;;;;;;;59.45;54.38;;;-3.80;99.90;;;;;;4183828;28;20040;-49
2021/12/07 07:26:32;;;;;;;53.45;49.25;;;-3.80;99.90;;;;;;4191435;28;20102;-48
2021/12/07 07:28:35;;;;;;;51.53;47.78;;;-3.80;99.90;;;;;;4191714;28;20063;-47
2021/12/07 07:30:37;;;;;;;50.65;46.80;;;-3.80;99.90;;;;;;4192166;28;20044;-49
2021/12/07 07:32:39;;;;;;;53.63;49.65;;;-3.70;99.90;;;;;;4191392;28;20036;-50
2021/12/07 07:34:41;;;;;;;42.85;40.38;;;-3.50;99.90;;;;;;4193070;28;20038;-50
2021/12/07 07:36:44;;;;;;;41.85;39.65;;;-3.50;99.90;;;;;;4191455;28;20377;-51
2021/12/07 07:38:46;;;;;;;;;;;-3.40;99.90;;;;;;4192534;28;20691;-50
2021/12/07 07:40:49;;;;;;;43.85;40.88;;;-3.40;99.90;;;;;;4192477;28;19920;-50
2021/12/07 07:42:51;;;;;;;;;;;-3.50;99.90;;;;;;4189880;28;20041;-49
2021/12/07 07:44:53;;;;;;;36.70;35.25;;;-3.40;99.90;;;;;;4188891;28;20515;-49
2021/12/07 07:46:55;;;;;;;36.40;34.80;;;-3.40;99.90;;;;;;4189306;28;20912;-51
2021/12/07 07:48:58;;;;;;;41.63;38.97;;;-3.20;99.90;;;;;;4194724;28;20512;-50
2021/12/07 07:51:01;;;;;;;41.75;39.72;;;-3.10;99.90;;;;;;4193370;28;20048;-51
2021/12/07 07:53:04;;;;;;;46.53;43.63;;;-2.90;99.90;;;;;;4180125;28;20095;-51
2021/12/07 07:55:07;;;;;;;41.35;38.92;;;-2.80;99.90;;;;;;4194119;28;20391;-51
2021/12/07 07:57:10;;;;;;;45.33;42.33;;;-2.80;99.90;;;;;;4196362;28;20036;-49
2021/12/07 07:59:12;;;;;;;41.42;38.92;;;-2.70;99.90;;;;;;4195209;28;20619;-51
2021/12/07 08:01:14;;;;;;;41.13;38.53;;;-2.60;99.90;;;;;;4194191;28;20036;-50
2021/12/07 08:03:16;;;;;;;43.20;40.35;;;-2.50;99.90;;;;;;4177540;28;20096;-49
2021/12/07 08:05:19;;;;;;;42.58;39.78;;;-2.40;99.90;;;;;;4196649;28;20045;-49
2021/12/07 08:07:21;;;;;;;44.65;41.33;;;-2.50;99.90;;;;;;4192466;28;20032;-50
2021/12/07 08:09:23;;;;;;;54.85;49.40;;;-2.50;99.90;;;;;;4195833;28;20051;-50
2021/12/07 08:11:25;;;;;;;47.45;43.15;;;-2.60;99.90;;;;;;4195655;28;20059;-50
2021/12/07 08:13:30;;;;;;;52.72;48.15;;;-2.60;99.90;;;;;;4194638;28;20527;-47
2021/12/07 08:15:39;;;;;;;50.30;45.30;;;-2.70;99.90;;;;;;4176645;28;20025;-51
2021/12/07 08:17:41;;;;;;;50.90;47.10;;;-2.70;99.90;;;;;;4194782;28;20032;-49
2021/12/07 08:19:43;;;;;;;88.68;68.70;;;-2.70;99.90;;;;;;4192133;28;20543;-47
2021/12/07 08:21:49;;;;;;;64.80;57.78;;;-2.70;99.90;;;;;;4194861;28;20037;-49
2021/12/07 08:23:51;;;;;;;52.00;47.45;;;-2.60;99.90;;;;;;4191873;28;20047;-50
2021/12/07 08:25:53;;;;;;;57.80;52.90;;;-2.60;99.90;;;;;;4194311;28;20079;-49
2021/12/07 08:27:56;;;;;;;50.97;45.28;;;-2.50;99.90;;;;;;4193716;28;20215;-50
2021/12/07 08:29:58;;;;;;;68.50;61.20;;;-2.50;99.90;;;;;;4195331;28;20037;-50
2021/12/07 08:32:01;;;;;;;85.63;62.15;;;-2.40;99.90;;;;;;4195465;28;20044;-48
2021/12/07 08:34:03;;;;;;;50.55;46.40;;;-2.40;99.90;;;;;;4194489;28;20154;-50
2021/12/07 08:36:05;;;;;;;;;;;-2.40;99.90;;;;;;4194347;28;20033;-48
2021/12/07 08:38:07;;;;;;;47.85;44.13;;;-2.40;99.90;;;;;;4194251;28;19963;-51
2021/12/07 08:40:11;;;;;;;48.22;43.83;;;-2.30;99.90;;;;;;4194263;28;20033;-48
2021/12/07 08:42:15;;;;;;;49.03;44.60;;;-2.30;99.90;;;;;;4194147;28;20090;-50
2021/12/07 08:44:17;;;;;;;49.30;44.42;;;-2.20;99.90;;;;;;4194358;28;20036;-48
2021/12/07 08:46:19;;;;;;;47.22;43.78;;;-2.20;99.90;;;;;;4194011;28;20519;-51
2021/12/07 08:48:22;;;;;;;41.58;38.63;;;-2.10;99.90;;;;;;4192626;28;20501;-51
2021/12/07 08:50:26;;;;;;;43.42;40.30;;;-2.00;99.90;;;;;;4195971;28;20390;-48
2021/12/07 08:52:29;;;;;;;53.10;48.83;;;-2.00;99.90;;;;;;4194679;28;20039;-49
2021/12/07 09:01:26;;;;;;;35.78;33.60;;;-1.50;99.90;;;;;;4194081;28;20040;-51
2021/12/07 09:03:29;;;;;;;29.75;28.52;;;-1.50;99.90;;;;;;4194571;28;20051;-46
2021/12/07 09:05:32;;;;;;;28.92;27.73;;;-1.40;99.90;;;;;;4193146;28;20028;-50
2021/12/07 09:07:34;;;;;;;24.98;23.65;;;-1.30;99.90;;;;;;4195576;28;20511;-51
2021/12/07 09:09:36;;;;;;;19.90;18.70;;;-1.30;99.90;;;;;;4194911;28;20041;-47
2021/12/07 09:11:40;;;;;;;15.85;14.95;;;-1.20;99.90;;;;;;4195114;28;20040;-49
2021/12/07 09:13:43;;;;;;;12.25;11.85;;;-1.10;99.90;;;;;;4193574;28;20044;-50
2021/12/07 09:15:46;;;;;;;10.50;10.30;;;-1.00;99.90;;;;;;4194176;28;20036;-52
2021/12/07 09:17:48;;;;;;;10.73;10.32;;;-0.90;99.90;;;;;;4191955;28;20064;-50
2021/12/07 09:19:50;;;;;;;9.43;9.23;;;-0.70;99.90;;;;;;4194063;28;20566;-50
2021/12/07 09:21:53;;;;;;;9.05;8.85;;;-0.60;99.90;;;;;;4193752;28;20041;-50
2021/12/07 09:23:58;;;;;;;28.88;24.58;;;-0.40;99.90;;;;;;4190649;28;20040;-51
2021/12/07 09:26:02;;;;;;;10.07;9.82;;;-0.40;99.90;;;;;;4193611;28;20044;-50
2021/12/07 09:28:10;;;;;;;11.15;10.57;;;-0.40;99.90;;;;;;4193926;28;20064;-50
2021/12/07 09:30:14;;;;;;;7.22;7.13;;;-0.30;99.90;;;;;;4194916;28;20047;-49
2021/12/07 09:32:16;;;;;;;9.43;8.93;;;-0.20;99.90;;;;;;4194283;28;20101;-49
2021/12/07 09:34:19;;;;;;;8.98;8.70;;;-0.10;99.90;;;;;;4194024;28;20064;-51
2021/12/07 09:36:22;;;;;;;9.13;8.82;;;0.10;99.90;;;;;;4195322;28;20040;-52
2021/12/07 09:38:28;;;;;;;10.40;9.63;;;0.10;99.90;;;;;;4193635;28;20459;-50
2021/12/07 09:40:32;;;;;;;15.88;14.57;;;0.20;99.90;;;;;;4199214;28;20046;-50
2021/12/07 09:42:34;;;;;;;13.00;12.32;;;0.30;99.90;;;;;;4193316;28;20036;-52
2021/12/07 09:44:36;;;;;;;19.40;17.90;;;0.40;99.90;;;;;;4164805;28;20532;-50
2021/12/07 09:46:40;;;;;;;11.93;11.27;;;0.50;99.90;;;;;;4193838;28;20089;-50
2021/12/07 09:48:44;;;;;;;11.35;10.68;;;0.80;99.90;;;;;;4194208;28;20099;-50
2021/12/07 09:50:50;;;;;;;11.07;10.23;;;1.20;99.90;;;;;;4191977;28;20052;-49
2021/12/07 09:52:52;;;;;;;11.45;10.77;;;1.20;99.90;;;;;;4194874;28;20041;-50
2021/12/07 09:54:56;;;;;;;17.20;15.60;;;1.20;99.90;;;;;;4192215;28;20040;-49
2021/12/07 09:56:58;;;;;;;10.48;10.07;;;1.30;99.90;;;;;;4191715;28;20138;-50
2021/12/07 09:59:02;;;;;;;9.30;8.98;;;1.30;99.90;;;;;;4192140;28;20562;-49
2021/12/07 10:01:07;;;;;;;10.77;10.35;;;1.60;99.90;;;;;;4194788;28;20075;-50
2021/12/07 10:03:10;;;;;;;6.80;6.65;;;1.70;99.90;;;;;;4193414;28;20056;-51
2021/12/07 10:05:16;;;;;;;6.45;6.15;;;1.70;99.90;;;;;;4192909;28;20037;-48
2021/12/07 10:07:19;;;;;;;14.90;13.00;;;1.90;99.90;;;;;;4192982;28;20086;-51
2021/12/07 10:09:21;;;;;;;9.02;8.70;;;2.30;99.90;;;;;;4184169;28;20556;-51
2021/12/07 10:11:24;;;;;;;11.25;10.57;;;2.30;99.90;;;;;;4186265;28;20060;-51
2021/12/07 10:13:28;;;;;;;9.15;8.57;;;2.20;99.90;;;;;;4190941;28;20086;-51
2021/12/07 10:15:32;;;;;;;10.63;9.75;;;2.50;99.90;;;;;;4192113;28;20048;-52
2021/12/07 10:17:42;;;;;;;9.82;9.05;;;2.50;99.90;;;;;;4194030;28;20102;-50
2021/12/07 10:19:45;;;;;;;7.05;6.85;;;2.40;99.90;;;;;;4189500;28;20037;-51
2021/12/07 10:22:04;;;;;;;8.70;8.18;;;2.60;99.90;;;;;;4192952;28;20554;-51
2021/12/07 10:24:09;;;;;;;8.43;8.13;;;3.00;99.90;;;;;;4191723;28;20098;-50
2021/12/07 10:26:14;;;;;;;10.13;9.65;;;3.60;99.90;;;;;;4185485;28;20090;-52
2021/12/07 10:28:37;;;;;;;41.28;27.42;;;4.00;99.90;;;;;;4188540;28;20522;-51
2021/12/07 10:30:39;;;;;;;18.58;16.83;;;4.10;99.90;;;;;;4189823;28;20389;-50
2021/12/07 10:32:42;;;;;;;10.10;9.50;;;3.80;99.90;;;;;;4186806;28;20435;-51
2021/12/07 10:34:44;;;;;;;12.82;11.80;;;3.70;99.90;;;;;;4164727;28;20529;-51
2021/12/07 10:36:52;;;;;;;9.15;8.85;;;3.70;99.90;;;;;;4187515;28;20047;-52
2021/12/07 10:38:54;;;;;;;9.10;8.13;;;3.70;99.90;;;;;;4190411;28;20045;-50
2021/12/07 10:41:03;;;;;;;13.30;11.98;;;3.80;99.90;;;;;;4189509;28;20044;-50
2021/12/07 10:43:09;;;;;;;12.73;11.63;;;4.30;99.90;;;;;;4187883;28;20078;-49
2021/12/07 10:45:11;;;;;;;13.57;12.43;;;4.70;99.90;;;;;;4187625;28;20526;-52
2021/12/07 10:47:19;;;;;;;11.50;10.52;;;4.60;99.90;;;;;;4187950;28;20048;-52
2021/12/07 10:49:26;;;;;;;14.43;12.13;;;4.50;99.90;;;;;;4186993;28;20048;-50
2021/12/07 10:51:28;;;;;;;12.77;11.48;;;4.60;99.90;;;;;;4190131;28;20051;-51
2021/12/07 10:53:35;;;;;;;13.93;12.38;;;4.80;99.90;;;;;;4167249;28;20044;-51
2021/12/07 10:55:40;;;;;;;13.80;12.05;;;4.90;99.90;;;;;;4187080;28;20037;-51
2021/12/07 10:57:42;;;;;;;13.23;12.02;;;4.90;99.90;;;;;;4190227;28;20044;-51
2021/12/07 11:00:08;;;;;;;11.68;10.57;;;5.00;99.90;;;;;;4188808;28;20047;-50
2021/12/07 11:02:15;;;;;;;10.68;9.80;;;5.20;99.90;;;;;;4185525;28;20036;-51
2021/12/07 11:04:35;;;;;;;10.45;9.85;;;5.50;99.90;;;;;;4188689;28;20083;-51
2021/12/07 11:07:08;;;;;;;23.00;16.35;;;6.10;99.90;;;;;;4187235;28;20028;-52
2021/12/07 11:09:11;;;;;;;27.00;20.00;;;6.70;99.90;;;;;;4188796;28;20117;-51
2021/12/07 11:11:13;;;;;;;14.70;13.10;;;6.90;99.90;;;;;;4188562;28;20035;-50
2021/12/07 11:13:26;;;;;;;13.20;11.98;;;6.60;99.90;;;;;;4189456;28;20041;-51
2021/12/07 11:15:31;;;;;;;8.98;8.38;;;6.20;99.90;;;;;;4190998;28;20037;-52
2021/12/07 11:17:34;;;;;;;8.98;8.35;;;6.10;99.90;;;;;;4191735;28;20028;-51
2021/12/07 11:19:36;;;;;;;8.82;8.20;;;6.30;99.90;;;;;;4173113;28;20536;-51
2021/12/07 11:21:42;;;;;;;16.40;12.73;;;6.40;99.90;;;;;;4191990;28;20392;-52
2021/12/07 11:23:48;;;;;;;10.52;9.57;;;6.60;99.90;;;;;;4172988;28;20040;-51
2021/12/07 11:30:28;;;;;;;14.10;9.82;;;7.00;99.90;;;;;;4190378;28;20041;-52
2021/12/07 11:32:30;;;;;;;9.02;8.40;;;7.20;99.90;;;;;;4186320;28;20692;-52
2021/12/07 11:34:40;;;;;;;9.60;8.85;;;7.40;98.80;;;;;;4186381;28;20532;-52
2021/12/07 11:36:50;;;;;;;11.05;10.15;;;7.40;97.40;;;;;;4188495;28;20044;-51
2021/12/07 11:38:54;;;;;;;9.00;8.30;;;7.40;98.90;;;;;;4186423;28;20040;-52
2021/12/07 11:41:21;;;;;;;17.30;12.77;;;7.40;97.80;;;;;;4185461;28;20741;-52
2021/12/07 11:43:24;;;;;;;8.25;7.50;;;7.50;96.60;;;;;;4189191;28;20621;-52
2021/12/07 11:45:31;;;;;;;5.57;5.15;;;7.60;92.40;;;;;;4184215;28;20082;-52
2021/12/07 11:47:38;;;;;;;9.23;6.95;;;7.70;92.10;;;;;;4188567;28;20040;-52
2021/12/07 11:49:41;;;;;;;8.07;7.20;;;8.10;92.40;;;;;;4185070;28;20053;-52
2021/12/07 11:51:45;;;;;;;20.90;13.43;;;8.30;91.60;;;;;;4192428;28;20500;-52
2021/12/07 11:53:48;;;;;;;9.35;8.40;;;8.20;91.00;;;;;;4169060;28;20049;-52
2021/12/07 11:55:57;;;;;;;11.13;8.10;;;8.40;90.40;;;;;;4175372;28;20048;-52
2021/12/07 11:58:00;;;;;;;4.70;4.38;;;8.60;91.40;;;;;;4192375;28;20037;-52
2021/12/07 12:00:05;;;;;;;6.10;5.80;;;8.80;82.90;;;;;;4190866;28;20094;-52
2021/12/07 12:02:08;;;;;;;4.70;4.50;;;8.90;86.40;;;;;;4192359;28;20118;-51
2021/12/07 12:04:10;;;;;;;7.53;6.95;;;9.30;80.90;;;;;;4174171;28;20116;-52
2021/12/07 12:06:13;;;;;;;7.20;6.93;;;9.40;80.60;;;;;;4190738;28;20036;-52
2021/12/07 12:08:19;;;;;;;4.55;4.25;;;9.80;85.40;;;;;;4189049;28;20045;-52
2021/12/07 12:10:22;;;;;;;1.77;1.67;;;10.20;87.20;;;;;;4187428;28;20547;-51
2021/12/07 12:12:27;;;;;;;;;;;10.50;73.40;;;;;;4192007;28;20036;-53
2021/12/07 12:14:47;;;;;;;2.67;1.55;;;10.20;74.00;;;;;;4192684;28;19920;-53
2021/12/07 12:17:05;;;;;;;2.70;2.65;;;10.00;69.50;;;;;;4186590;28;20728;-53
2021/12/07 12:19:31;;;;;;;1.35;1.35;;;9.80;68.70;;;;;;4186550;28;20043;-52
2021/12/07 12:21:36;;;;;;;3.70;3.40;;;10.10;73.80;;;;;;4178158;28;20057;-52
2021/12/07 12:23:45;;;;;;;2.78;2.67;;;10.60;76.30;;;;;;4190585;28;20094;-52